Westminster, CO

9:57 PM MDT on September 02, 2014 (GMT -0600)
Arvada, CO | Change Station
CLOSE
Current Station
Personal Weather Station
Location: Arvada, CO
Elevation: 5472 ft
Nearby Weather Stations

Elev 5472 ft 39.82 °N, 105.07 °W | Updated 4 seconds ago

Scattered Clouds
Scattered Clouds
72.1 °F
Feels Like 77 °F
N
0.0
Wind Variable Wind from South
Gusts 0.0 mph

Today
High -- | Low -- °F
--% Chance of Precip.
Yesterday
High -- | Low -- °F
Precip. -- in
6:29 AM 7:29 PM
First Quarter, 58% visible
Pressure 30.01 in
Visibility 20.0 miles
Clouds Scattered Clouds 8000 ft
Heat Index 77 °F
Dew Point 54 °F
Humidity 52%
Rainfall 0.00 in
Snow Depth Not available.
UV 0 out of 12
Pollen 10.10 out of 12
Ozone Good
PM2.5 Moderate
Flu Activity Not available.
METAR KBJC 030253Z VRB03KT 20SM SCT080 23/04 A3001

More Conditions Fewer Conditions

Pressure 30.01 in
Visibility 20.0 miles
Clouds Scattered Clouds 8000 ft
Heat Index 77 °F
Dew Point 54 °F
Humidity 52%
Rainfall 0.00 in
Snow Depth Not available.
UV 0 out of 12
Pollen 10.10 out of 12
Ozone Good
PM2.5 Moderate
Flu Activity Not available.
METAR KBJC 030253Z VRB03KT 20SM SCT080 23/04 A3001

More Conditions Fewer Conditions

10-Day Weather Forecast

Almanac

Astronomy

Sep. 02, 2014 Rise Set
Actual Time 6:29 AM MDT 7:29 PM MDT
Civil Twilight 6:01 AM MDT 7:57 PM MDT
Nautical Twilight 5:28 AM MDT 8:30 PM MDT
Astronomical Twilight 4:54 AM MDT 9:04 PM MDT
Moon 2:15 PM MDT (9/2) No Moon Set
Length of Visible Light 13h 55m
Length of Day
13h 00m
Tomorrow will be 2m 31s shorter.
First Quarter, 58% of the Moon is Illuminated
Today
First Quarter
Sep 8
Full
Sep 15
Last Quarter
Sep 24
New
Oct 1
First Quarter

Today's Extremes

State Highs State Lows

Community

WunderPhotos

Upload Photos

1,749,867 photos uploaded!

Nearby

Air Quality

  Air Quality AQ Index Pollutant
Yesterday Moderate
OZONE
Yesterday Good
PM10
Current Moderate
PM2.5
Current Good
OZONE
Tuesday Moderate
OZONE
Tuesday Good
PM2.5
Wednesday Moderate
OZONE
Wednesday Good
PM2.5

Snow Depth

Station Depth Elevation
Niwot 0 in 9910 ft
University Camp 0 in 10300 ft
Echo Lake 0 in 10600 ft
Copeland Lake 0 in 8600 ft
Berthoud Summit 0 in 11300 ft

Earthquake Activity

City Distance Mag. Time & Date
No recent earthquake activity has been reported nearby.
Minimum magnitude displayed is 2.5.

Coastal Water Temperatures

Place Temperature
No Stations Reporting

Nearby Weather Stations